sensor_id;sensor_type;location;lat;lon;timestamp;pressure;altitude;pressure_sealevel;temperature;humidity
38289;BME280;24092;53.370;-6.588;2022-12-18T00:00:15;100740.78;;;-1.26;100.00
38289;BME280;24092;53.370;-6.588;2022-12-18T00:02:42;100733.54;;;-1.56;100.00
38289;BME280;24092;53.370;-6.588;2022-12-18T00:05:10;100734.93;;;-1.12;100.00
38289;BME280;24092;53.370;-6.588;2022-12-18T00:07:37;100733.33;;;-1.35;100.00
38289;BME280;24092;53.370;-6.588;2022-12-18T00:10:05;100734.07;;;-1.38;100.00
38289;BME280;24092;53.370;-6.588;2022-12-18T00:12:32;100729.55;;;-2.06;100.00
38289;BME280;24092;53.370;-6.588;2022-12-18T00:14:59;100723.66;;;-3.99;100.00
38289;BME280;24092;53.370;-6.588;2022-12-18T00:17:26;100723.58;;;-4.50;100.00
38289;BME280;24092;53.370;-6.588;2022-12-18T00:19:53;100729.17;;;-3.55;100.00
38289;BME280;24092;53.370;-6.588;2022-12-18T00:22:21;100736.08;;;-3.06;100.00
38289;BME280;24092;53.370;-6.588;2022-12-18T00:24:48;100741.05;;;-1.51;100.00
38289;BME280;24092;53.370;-6.588;2022-12-18T00:27:15;100746.66;;;-0.88;100.00
38289;BME280;24092;53.370;-6.588;2022-12-18T00:29:43;100754.90;;;-0.24;100.00
38289;BME280;24092;53.370;-6.588;2022-12-18T00:32:10;100753.78;;;-0.27;100.00
38289;BME280;24092;53.370;-6.588;2022-12-18T00:34:37;100753.56;;;-0.01;100.00
38289;BME280;24092;53.370;-6.588;2022-12-18T00:37:04;100751.17;;;-0.11;100.00
38289;BME280;24092;53.370;-6.588;2022-12-18T00:39:31;100743.81;;;0.18;100.00
38289;BME280;24092;53.370;-6.588;2022-12-18T00:41:59;100746.99;;;-0.47;100.00
38289;BME280;24092;53.370;-6.588;2022-12-18T00:44:26;100742.93;;;0.36;100.00
38289;BME280;24092;53.370;-6.588;2022-12-18T00:46:53;100736.85;;;0.35;100.00
38289;BME280;24092;53.370;-6.588;2022-12-18T00:49:21;100734.51;;;0.73;100.00
38289;BME280;24092;53.370;-6.588;2022-12-18T00:51:48;100734.99;;;1.74;100.00
38289;BME280;24092;53.370;-6.588;2022-12-18T00:54:16;100736.48;;;1.50;100.00
38289;BME280;24092;53.370;-6.588;2022-12-18T00:56:43;100729.84;;;0.15;100.00
38289;BME280;24092;53.370;-6.588;2022-12-18T00:59:10;100724.29;;;-0.50;100.00
38289;BME280;24092;53.370;-6.588;2022-12-18T01:01:38;100724.45;;;1.25;100.00
38289;BME280;24092;53.370;-6.588;2022-12-18T01:04:05;100719.83;;;0.95;100.00
38289;BME280;24092;53.370;-6.588;2022-12-18T01:06:33;100710.79;;;0.72;100.00
38289;BME280;24092;53.370;-6.588;2022-12-18T01:09:00;100703.39;;;-1.54;100.00
38289;BME280;24092;53.370;-6.588;2022-12-18T01:11:27;100703.85;;;-0.27;100.00
38289;BME280;24092;53.370;-6.588;2022-12-18T01:13:54;100692.97;;;0.24;100.00
38289;BME280;24092;53.370;-6.588;2022-12-18T01:16:22;100697.82;;;-0.79;100.00
38289;BME280;24092;53.370;-6.588;2022-12-18T01:18:52;100688.77;;;-0.16;100.00
38289;BME280;24092;53.370;-6.588;2022-12-18T01:21:19;100689.91;;;-0.87;100.00
38289;BME280;24092;53.370;-6.588;2022-12-18T01:23:50;100691.21;;;-0.12;100.00
38289;BME280;24092;53.370;-6.588;2022-12-18T01:26:18;100688.63;;;-0.79;100.00
38289;BME280;24092;53.370;-6.588;2022-12-18T01:28:45;100687.04;;;1.87;100.00
38289;BME280;24092;53.370;-6.588;2022-12-18T01:31:15;100684.00;;;0.86;100.00
38289;BME280;24092;53.370;-6.588;2022-12-18T01:33:43;100679.90;;;1.63;100.00
38289;BME280;24092;53.370;-6.588;2022-12-18T01:36:20;100681.52;;;2.33;100.00
38289;BME280;24092;53.370;-6.588;2022-12-18T01:38:48;100671.10;;;0.68;100.00
38289;BME280;24092;53.370;-6.588;2022-12-18T01:41:18;100663.21;;;-1.10;100.00
38289;BME280;24092;53.370;-6.588;2022-12-18T01:43:49;100656.79;;;-3.17;100.00
38289;BME280;24092;53.370;-6.588;2022-12-18T01:46:18;100647.24;;;-3.08;100.00
38289;BME280;24092;53.370;-6.588;2022-12-18T01:48:48;100642.55;;;-1.37;100.00
38289;BME280;24092;53.370;-6.588;2022-12-18T01:51:17;100635.69;;;-0.28;100.00
38289;BME280;24092;53.370;-6.588;2022-12-18T01:53:46;100621.91;;;0.35;100.00
38289;BME280;24092;53.370;-6.588;2022-12-18T01:56:15;100620.53;;;0.70;100.00
38289;BME280;24092;53.370;-6.588;2022-12-18T01:58:50;100609.09;;;-1.10;100.00
38289;BME280;24092;53.370;-6.588;2022-12-18T02:01:20;100601.66;;;-0.12;100.00
38289;BME280;24092;53.370;-6.588;2022-12-18T02:03:48;100598.21;;;0.72;100.00
38289;BME280;24092;53.370;-6.588;2022-12-18T02:06:17;100597.24;;;2.00;100.00
38289;BME280;24092;53.370;-6.588;2022-12-18T02:08:57;100590.76;;;2.07;100.00
38289;BME280;24092;53.370;-6.588;2022-12-18T02:11:34;100592.03;;;1.88;100.00
38289;BME280;24092;53.370;-6.588;2022-12-18T02:14:16;100596.66;;;1.20;100.00
38289;BME280;24092;53.370;-6.588;2022-12-18T02:16:48;100595.44;;;2.42;100.00
38289;BME280;24092;53.370;-6.588;2022-12-18T02:19:31;100598.29;;;1.71;100.00
38289;BME280;24092;53.370;-6.588;2022-12-18T02:22:10;100594.03;;;2.12;100.00
38289;BME280;24092;53.370;-6.588;2022-12-18T02:24:48;100595.35;;;2.10;100.00
38289;BME280;24092;53.370;-6.588;2022-12-18T02:27:18;100593.62;;;1.87;100.00
38289;BME280;24092;53.370;-6.588;2022-12-18T02:29:49;100589.80;;;2.36;100.00
38289;BME280;24092;53.370;-6.588;2022-12-18T02:32:21;100587.00;;;2.21;100.00
38289;BME280;24092;53.370;-6.588;2022-12-18T02:34:53;100589.14;;;2.00;100.00
38289;BME280;24092;53.370;-6.588;2022-12-18T02:37:23;100593.24;;;2.50;100.00
38289;BME280;24092;53.370;-6.588;2022-12-18T02:39:53;100593.74;;;1.47;100.00
38289;BME280;24092;53.370;-6.588;2022-12-18T02:42:22;100597.96;;;2.84;100.00
38289;BME280;24092;53.370;-6.588;2022-12-18T02:44:51;100596.20;;;1.37;100.00
38289;BME280;24092;53.370;-6.588;2022-12-18T02:47:27;100581.25;;;-0.71;100.00
38289;BME280;24092;53.370;-6.588;2022-12-18T02:50:04;100573.28;;;-1.67;100.00
38289;BME280;24092;53.370;-6.588;2022-12-18T02:52:39;100559.70;;;-1.44;100.00
38289;BME280;24092;53.370;-6.588;2022-12-18T02:55:22;100551.36;;;0.44;100.00
38289;BME280;24092;53.370;-6.588;2022-12-18T02:57:55;100551.98;;;-0.31;100.00
38289;BME280;24092;53.370;-6.588;2022-12-18T03:00:30;100547.41;;;-0.06;100.00
38289;BME280;24092;53.370;-6.588;2022-12-18T03:03:05;100544.33;;;0.37;100.00
38289;BME280;24092;53.370;-6.588;2022-12-18T03:05:38;100532.54;;;0.96;100.00
38289;BME280;24092;53.370;-6.588;2022-12-18T03:08:10;100520.03;;;0.61;100.00
38289;BME280;24092;53.370;-6.588;2022-12-18T03:10:48;100510.50;;;-0.04;100.00
38289;BME280;24092;53.370;-6.588;2022-12-18T03:13:20;100504.77;;;0.47;100.00
38289;BME280;24092;53.370;-6.588;2022-12-18T03:15:51;100490.38;;;1.02;100.00
38289;BME280;24092;53.370;-6.588;2022-12-18T03:18:22;100479.99;;;0.23;100.00
38289;BME280;24092;53.370;-6.588;2022-12-18T03:20:52;100476.25;;;0.49;100.00
38289;BME280;24092;53.370;-6.588;2022-12-18T03:23:22;100463.72;;;1.57;100.00
38289;BME280;24092;53.370;-6.588;2022-12-18T03:25:56;100458.71;;;1.04;100.00
38289;BME280;24092;53.370;-6.588;2022-12-18T03:28:28;100458.78;;;-0.59;100.00
38289;BME280;24092;53.370;-6.588;2022-12-18T03:31:00;100460.65;;;-0.66;100.00
38289;BME280;24092;53.370;-6.588;2022-12-18T03:33:31;100457.91;;;-0.75;100.00
38289;BME280;24092;53.370;-6.588;2022-12-18T03:36:02;100462.41;;;-1.41;100.00
38289;BME280;24092;53.370;-6.588;2022-12-18T03:38:30;100466.90;;;0.15;100.00
38289;BME280;24092;53.370;-6.588;2022-12-18T03:41:03;100465.95;;;0.00;100.00
38289;BME280;24092;53.370;-6.588;2022-12-18T03:43:40;100457.09;;;-0.31;100.00
38289;BME280;24092;53.370;-6.588;2022-12-18T03:46:16;100464.66;;;0.78;100.00
38289;BME280;24092;53.370;-6.588;2022-12-18T03:48:51;100461.96;;;1.03;100.00
38289;BME280;24092;53.370;-6.588;2022-12-18T03:51:23;100458.79;;;0.34;100.00
38289;BME280;24092;53.370;-6.588;2022-12-18T03:53:57;100453.35;;;-0.42;100.00
38289;BME280;24092;53.370;-6.588;2022-12-18T03:56:28;100444.57;;;0.61;100.00
38289;BME280;24092;53.370;-6.588;2022-12-18T03:58:57;100443.22;;;0.26;100.00
38289;BME280;24092;53.370;-6.588;2022-12-18T04:01:29;100430.58;;;-0.19;100.00
38289;BME280;24092;53.370;-6.588;2022-12-18T04:04:00;100427.63;;;0.72;100.00
38289;BME280;24092;53.370;-6.588;2022-12-18T04:06:29;100420.61;;;-0.21;100.00
38289;BME280;24092;53.370;-6.588;2022-12-18T04:08:57;100415.76;;;-0.97;100.00
38289;BME280;24092;53.370;-6.588;2022-12-18T04:11:25;100425.13;;;1.22;100.00
38289;BME280;24092;53.370;-6.588;2022-12-18T04:13:55;100423.56;;;1.68;100.00
38289;BME280;24092;53.370;-6.588;2022-12-18T04:16:23;100425.22;;;1.59;100.00
38289;BME280;24092;53.370;-6.588;2022-12-18T04:18:49;100408.95;;;0.67;100.00
38289;BME280;24092;53.370;-6.588;2022-12-18T04:21:17;100393.44;;;-0.31;100.00
38289;BME280;24092;53.370;-6.588;2022-12-18T04:23:44;100386.18;;;-1.00;100.00
38289;BME280;24092;53.370;-6.588;2022-12-18T04:26:11;100376.01;;;-0.36;100.00
38289;BME280;24092;53.370;-6.588;2022-12-18T04:28:38;100360.77;;;-3.14;100.00
38289;BME280;24092;53.370;-6.588;2022-12-18T04:31:05;100352.59;;;-1.30;100.00
38289;BME280;24092;53.370;-6.588;2022-12-18T04:33:32;100348.76;;;-0.08;100.00
38289;BME280;24092;53.370;-6.588;2022-12-18T04:35:59;100352.92;;;0.16;100.00
38289;BME280;24092;53.370;-6.588;2022-12-18T04:38:27;100352.07;;;0.64;100.00
38289;BME280;24092;53.370;-6.588;2022-12-18T04:40:53;100352.14;;;1.85;100.00
38289;BME280;24092;53.370;-6.588;2022-12-18T04:43:20;100348.10;;;0.55;100.00
38289;BME280;24092;53.370;-6.588;2022-12-18T04:45:48;100346.38;;;1.73;100.00
38289;BME280;24092;53.370;-6.588;2022-12-18T04:48:14;100345.04;;;2.13;100.00
38289;BME280;24092;53.370;-6.588;2022-12-18T04:50:41;100337.50;;;2.08;100.00
38289;BME280;24092;53.370;-6.588;2022-12-18T04:53:08;100335.22;;;1.73;100.00
38289;BME280;24092;53.370;-6.588;2022-12-18T04:55:36;100323.05;;;2.14;100.00
38289;BME280;24092;53.370;-6.588;2022-12-18T04:58:03;100312.05;;;0.76;100.00
38289;BME280;24092;53.370;-6.588;2022-12-18T05:00:30;100310.59;;;1.21;100.00
38289;BME280;24092;53.370;-6.588;2022-12-18T05:02:57;100298.77;;;0.35;100.00
38289;BME280;24092;53.370;-6.588;2022-12-18T05:05:24;100298.66;;;1.05;100.00
38289;BME280;24092;53.370;-6.588;2022-12-18T05:07:51;100286.95;;;0.25;100.00
38289;BME280;24092;53.370;-6.588;2022-12-18T05:10:19;100279.82;;;0.32;100.00
38289;BME280;24092;53.370;-6.588;2022-12-18T05:12:46;100266.31;;;-0.36;100.00
38289;BME280;24092;53.370;-6.588;2022-12-18T05:15:14;100260.67;;;-0.44;100.00
38289;BME280;24092;53.370;-6.588;2022-12-18T05:17:41;100261.62;;;0.46;100.00
38289;BME280;24092;53.370;-6.588;2022-12-18T05:20:09;100249.36;;;-0.71;100.00
38289;BME280;24092;53.370;-6.588;2022-12-18T05:22:36;100259.27;;;0.70;100.00
38289;BME280;24092;53.370;-6.588;2022-12-18T05:25:04;100245.50;;;1.06;100.00
38289;BME280;24092;53.370;-6.588;2022-12-18T05:27:31;100246.75;;;1.30;100.00
38289;BME280;24092;53.370;-6.588;2022-12-18T05:29:59;100242.99;;;2.22;100.00
38289;BME280;24092;53.370;-6.588;2022-12-18T05:32:26;100237.37;;;2.38;100.00
38289;BME280;24092;53.370;-6.588;2022-12-18T05:34:53;100225.65;;;1.72;100.00
38289;BME280;24092;53.370;-6.588;2022-12-18T05:37:20;100221.98;;;2.71;100.00
38289;BME280;24092;53.370;-6.588;2022-12-18T05:39:47;100220.25;;;2.55;100.00
38289;BME280;24092;53.370;-6.588;2022-12-18T05:42:14;100216.77;;;2.90;100.00
38289;BME280;24092;53.370;-6.588;2022-12-18T05:44:41;100223.17;;;2.99;100.00
38289;BME280;24092;53.370;-6.588;2022-12-18T05:47:09;100217.50;;;3.91;100.00
38289;BME280;24092;53.370;-6.588;2022-12-18T05:49:36;100213.53;;;3.51;100.00
38289;BME280;24092;53.370;-6.588;2022-12-18T05:52:03;100205.14;;;3.52;100.00
38289;BME280;24092;53.370;-6.588;2022-12-18T05:54:30;100199.60;;;1.79;100.00
38289;BME280;24092;53.370;-6.588;2022-12-18T05:56:58;100188.09;;;3.14;100.00
38289;BME280;24092;53.370;-6.588;2022-12-18T05:59:25;100190.80;;;2.97;100.00
38289;BME280;24092;53.370;-6.588;2022-12-18T06:01:52;100187.09;;;3.20;100.00
38289;BME280;24092;53.370;-6.588;2022-12-18T06:04:20;100182.85;;;3.13;100.00
38289;BME280;24092;53.370;-6.588;2022-12-18T06:06:47;100178.64;;;2.47;100.00
38289;BME280;24092;53.370;-6.588;2022-12-18T06:09:14;100160.36;;;2.69;100.00
38289;BME280;24092;53.370;-6.588;2022-12-18T06:11:41;100148.34;;;1.47;100.00
38289;BME280;24092;53.370;-6.588;2022-12-18T06:14:09;100144.60;;;2.13;100.00
38289;BME280;24092;53.370;-6.588;2022-12-18T06:16:37;100139.55;;;1.43;100.00
38289;BME280;24092;53.370;-6.588;2022-12-18T06:19:05;100138.61;;;1.12;100.00
38289;BME280;24092;53.370;-6.588;2022-12-18T06:21:33;100138.76;;;1.85;100.00
38289;BME280;24092;53.370;-6.588;2022-12-18T06:24:00;100133.77;;;1.03;100.00
38289;BME280;24092;53.370;-6.588;2022-12-18T06:26:27;100135.83;;;1.90;100.00
38289;BME280;24092;53.370;-6.588;2022-12-18T06:28:54;100132.49;;;0.84;100.00
38289;BME280;24092;53.370;-6.588;2022-12-18T06:31:21;100132.42;;;2.42;100.00
38289;BME280;24092;53.370;-6.588;2022-12-18T06:33:48;100108.07;;;1.39;100.00
38289;BME280;24092;53.370;-6.588;2022-12-18T06:36:16;100100.43;;;1.95;100.00
38289;BME280;24092;53.370;-6.588;2022-12-18T06:38:43;100098.56;;;1.59;100.00
38289;BME280;24092;53.370;-6.588;2022-12-18T06:41:12;100095.76;;;2.29;100.00
38289;BME280;24092;53.370;-6.588;2022-12-18T06:43:41;100080.43;;;2.54;100.00
38289;BME280;24092;53.370;-6.588;2022-12-18T06:46:09;100079.54;;;2.61;100.00
38289;BME280;24092;53.370;-6.588;2022-12-18T06:48:37;100071.71;;;2.14;100.00
38289;BME280;24092;53.370;-6.588;2022-12-18T06:51:05;100058.06;;;1.38;100.00
38289;BME280;24092;53.370;-6.588;2022-12-18T06:53:33;100045.40;;;1.90;100.00
38289;BME280;24092;53.370;-6.588;2022-12-18T06:56:01;100029.62;;;1.62;100.00
38289;BME280;24092;53.370;-6.588;2022-12-18T06:58:29;100029.55;;;0.86;100.00
38289;BME280;24092;53.370;-6.588;2022-12-18T07:00:59;100029.95;;;-0.10;100.00
38289;BME280;24092;53.370;-6.588;2022-12-18T07:03:27;100031.71;;;0.73;100.00
38289;BME280;24092;53.370;-6.588;2022-12-18T07:05:54;100023.78;;;0.98;100.00
38289;BME280;24092;53.370;-6.588;2022-12-18T07:08:22;100024.90;;;0.87;100.00
38289;BME280;24092;53.370;-6.588;2022-12-18T07:10:49;100020.99;;;1.37;100.00
38289;BME280;24092;53.370;-6.588;2022-12-18T07:13:16;100018.81;;;0.88;100.00
38289;BME280;24092;53.370;-6.588;2022-12-18T07:15:43;100017.52;;;0.40;100.00
38289;BME280;24092;53.370;-6.588;2022-12-18T07:18:11;100009.16;;;1.14;100.00
38289;BME280;24092;53.370;-6.588;2022-12-18T07:20:38;100004.14;;;0.13;100.00
38289;BME280;24092;53.370;-6.588;2022-12-18T07:23:06;100001.82;;;0.91;100.00
38289;BME280;24092;53.370;-6.588;2022-12-18T07:25:34;99996.49;;;1.53;100.00
38289;BME280;24092;53.370;-6.588;2022-12-18T07:28:02;99990.96;;;1.40;100.00
38289;BME280;24092;53.370;-6.588;2022-12-18T07:30:29;99998.50;;;1.59;100.00
38289;BME280;24092;53.370;-6.588;2022-12-18T07:32:56;99988.19;;;1.79;100.00
38289;BME280;24092;53.370;-6.588;2022-12-18T07:35:23;99991.74;;;1.18;100.00
38289;BME280;24092;53.370;-6.588;2022-12-18T07:37:50;99980.88;;;1.21;100.00
38289;BME280;24092;53.370;-6.588;2022-12-18T07:40:17;99969.25;;;0.94;100.00
38289;BME280;24092;53.370;-6.588;2022-12-18T07:42:44;99962.23;;;1.13;100.00
38289;BME280;24092;53.370;-6.588;2022-12-18T07:45:11;99942.21;;;1.02;100.00
38289;BME280;24092;53.370;-6.588;2022-12-18T07:47:39;99934.40;;;0.88;100.00
38289;BME280;24092;53.370;-6.588;2022-12-18T07:50:06;99922.32;;;1.28;100.00
38289;BME280;24092;53.370;-6.588;2022-12-18T07:52:33;99910.36;;;-0.64;100.00
38289;BME280;24092;53.370;-6.588;2022-12-18T07:55:01;99903.86;;;-0.43;100.00
38289;BME280;24092;53.370;-6.588;2022-12-18T07:57:28;99896.57;;;-0.41;100.00
38289;BME280;24092;53.370;-6.588;2022-12-18T07:59:55;99882.31;;;-1.83;100.00
38289;BME280;24092;53.370;-6.588;2022-12-18T08:02:22;99875.82;;;-0.41;100.00
38289;BME280;24092;53.370;-6.588;2022-12-18T08:04:49;99877.41;;;-0.16;100.00
38289;BME280;24092;53.370;-6.588;2022-12-18T08:07:17;99870.77;;;-0.11;100.00
38289;BME280;24092;53.370;-6.588;2022-12-18T08:09:43;99863.76;;;-0.38;100.00
38289;BME280;24092;53.370;-6.588;2022-12-18T08:12:11;99864.90;;;1.03;100.00
38289;BME280;24092;53.370;-6.588;2022-12-18T08:14:38;99855.52;;;0.67;100.00
38289;BME280;24092;53.370;-6.588;2022-12-18T08:17:05;99846.71;;;-0.32;100.00
38289;BME280;24092;53.370;-6.588;2022-12-18T08:19:32;99844.27;;;0.40;100.00
38289;BME280;24092;53.370;-6.588;2022-12-18T08:21:59;99830.93;;;0.21;100.00
38289;BME280;24092;53.370;-6.588;2022-12-18T08:24:26;99832.98;;;-0.64;100.00
38289;BME280;24092;53.370;-6.588;2022-12-18T08:26:54;99814.57;;;-0.84;100.00
38289;BME280;24092;53.370;-6.588;2022-12-18T08:29:21;99813.74;;;-0.17;100.00
38289;BME280;24092;53.370;-6.588;2022-12-18T08:31:49;99809.47;;;0.45;100.00
38289;BME280;24092;53.370;-6.588;2022-12-18T08:34:16;99797.54;;;0.53;100.00
38289;BME280;24092;53.370;-6.588;2022-12-18T08:36:43;99795.70;;;-0.52;100.00
38289;BME280;24092;53.370;-6.588;2022-12-18T08:39:10;99789.16;;;0.45;100.00
38289;BME280;24092;53.370;-6.588;2022-12-18T08:41:37;99784.06;;;-0.41;100.00
38289;BME280;24092;53.370;-6.588;2022-12-18T08:44:04;99781.39;;;-0.67;100.00
38289;BME280;24092;53.370;-6.588;2022-12-18T08:46:34;99778.92;;;0.40;100.00
38289;BME280;24092;53.370;-6.588;2022-12-18T08:49:02;99763.82;;;-1.34;100.00
38289;BME280;24092;53.370;-6.588;2022-12-18T08:51:30;99764.68;;;0.52;100.00
38289;BME280;24092;53.370;-6.588;2022-12-18T08:53:57;99770.23;;;0.67;100.00
38289;BME280;24092;53.370;-6.588;2022-12-18T08:56:24;99770.94;;;0.43;100.00
38289;BME280;24092;53.370;-6.588;2022-12-18T08:58:52;99767.39;;;0.32;100.00
38289;BME280;24092;53.370;-6.588;2022-12-18T09:01:20;99775.73;;;1.25;100.00
38289;BME280;24092;53.370;-6.588;2022-12-18T09:03:48;99770.23;;;0.72;100.00
38289;BME280;24092;53.370;-6.588;2022-12-18T09:06:17;99777.80;;;1.37;100.00
38289;BME280;24092;53.370;-6.588;2022-12-18T09:08:45;99777.42;;;1.19;100.00
38289;BME280;24092;53.370;-6.588;2022-12-18T09:11:14;99774.06;;;1.58;100.00
38289;BME280;24092;53.370;-6.588;2022-12-18T09:13:42;99767.53;;;0.84;100.00
38289;BME280;24092;53.370;-6.588;2022-12-18T09:16:09;99767.75;;;1.19;100.00
38289;BME280;24092;53.370;-6.588;2022-12-18T09:18:36;99759.46;;;1.61;100.00
38289;BME280;24092;53.370;-6.588;2022-12-18T09:21:12;99743.84;;;1.75;100.00
38289;BME280;24092;53.370;-6.588;2022-12-18T09:23:41;99731.65;;;1.05;100.00
38289;BME280;24092;53.370;-6.588;2022-12-18T09:26:09;99730.33;;;0.97;100.00
38289;BME280;24092;53.370;-6.588;2022-12-18T09:28:36;99722.58;;;1.31;100.00
38289;BME280;24092;53.370;-6.588;2022-12-18T09:31:05;99723.32;;;0.49;100.00
38289;BME280;24092;53.370;-6.588;2022-12-18T09:33:33;99715.02;;;1.17;100.00
38289;BME280;24092;53.370;-6.588;2022-12-18T09:36:02;99712.19;;;1.69;100.00
38289;BME280;24092;53.370;-6.588;2022-12-18T09:38:29;99715.38;;;2.14;100.00
38289;BME280;24092;53.370;-6.588;2022-12-18T09:41:00;99712.76;;;2.44;100.00
38289;BME280;24092;53.370;-6.588;2022-12-18T09:43:35;99696.59;;;0.93;100.00
38289;BME280;24092;53.370;-6.588;2022-12-18T09:46:07;99697.10;;;0.67;100.00
38289;BME280;24092;53.370;-6.588;2022-12-18T09:48:39;99694.07;;;1.34;100.00
38289;BME280;24092;53.370;-6.588;2022-12-18T09:51:12;99680.82;;;-1.00;100.00
38289;BME280;24092;53.370;-6.588;2022-12-18T09:53:44;99684.07;;;1.29;100.00
38289;BME280;24092;53.370;-6.588;2022-12-18T09:56:17;99665.37;;;1.18;100.00
38289;BME280;24092;53.370;-6.588;2022-12-18T09:58:51;99668.71;;;1.56;100.00
38289;BME280;24092;53.370;-6.588;2022-12-18T10:01:26;99669.34;;;1.47;100.00
38289;BME280;24092;53.370;-6.588;2022-12-18T10:03:54;99654.31;;;1.46;100.00
38289;BME280;24092;53.370;-6.588;2022-12-18T10:06:26;99641.90;;;1.56;100.00
38289;BME280;24092;53.370;-6.588;2022-12-18T10:08:59;99644.88;;;1.78;100.00
38289;BME280;24092;53.370;-6.588;2022-12-18T10:11:40;99638.51;;;1.71;100.00
38289;BME280;24092;53.370;-6.588;2022-12-18T10:14:19;99639.45;;;1.96;100.00
38289;BME280;24092;53.370;-6.588;2022-12-18T10:16:57;99642.43;;;2.19;100.00
38289;BME280;24092;53.370;-6.588;2022-12-18T10:19:43;99638.67;;;2.45;100.00
38289;BME280;24092;53.370;-6.588;2022-12-18T10:22:27;99635.81;;;2.57;100.00
38289;BME280;24092;53.370;-6.588;2022-12-18T10:25:03;99638.72;;;2.26;100.00
38289;BME280;24092;53.370;-6.588;2022-12-18T10:27:32;99622.34;;;2.18;100.00
38289;BME280;24092;53.370;-6.588;2022-12-18T10:30:04;99614.30;;;1.85;100.00
38289;BME280;24092;53.370;-6.588;2022-12-18T10:32:32;99596.88;;;1.46;100.00
38289;BME280;24092;53.370;-6.588;2022-12-18T10:34:59;99603.45;;;2.22;100.00
38289;BME280;24092;53.370;-6.588;2022-12-18T10:37:28;99602.43;;;2.32;100.00
38289;BME280;24092;53.370;-6.588;2022-12-18T10:40:13;99595.37;;;2.37;100.00
38289;BME280;24092;53.370;-6.588;2022-12-18T10:42:41;99581.19;;;2.16;100.00
38289;BME280;24092;53.370;-6.588;2022-12-18T10:45:11;99583.80;;;0.82;100.00
38289;BME280;24092;53.370;-6.588;2022-12-18T10:47:43;99580.78;;;1.54;100.00
38289;BME280;24092;53.370;-6.588;2022-12-18T10:50:20;99576.52;;;0.72;100.00
38289;BME280;24092;53.370;-6.588;2022-12-18T10:52:57;99560.09;;;2.08;100.00
38289;BME280;24092;53.370;-6.588;2022-12-18T10:55:30;99555.11;;;2.28;100.00
38289;BME280;24092;53.370;-6.588;2022-12-18T10:58:16;99553.43;;;1.08;100.00
38289;BME280;24092;53.370;-6.588;2022-12-18T11:00:43;99552.21;;;0.96;100.00
38289;BME280;24092;53.370;-6.588;2022-12-18T11:03:31;99534.57;;;1.36;100.00
38289;BME280;24092;53.370;-6.588;2022-12-18T11:06:05;99533.80;;;2.09;100.00
38289;BME280;24092;53.370;-6.588;2022-12-18T11:08:33;99519.23;;;1.77;100.00
38289;BME280;24092;53.370;-6.588;2022-12-18T11:11:01;99511.28;;;2.40;100.00
38289;BME280;24092;53.370;-6.588;2022-12-18T11:13:31;99498.73;;;1.63;100.00
38289;BME280;24092;53.370;-6.588;2022-12-18T11:15:58;99490.60;;;2.57;100.00
38289;BME280;24092;53.370;-6.588;2022-12-18T11:18:28;99492.65;;;1.80;100.00
38289;BME280;24092;53.370;-6.588;2022-12-18T11:20:59;99495.65;;;1.92;100.00
38289;BME280;24092;53.370;-6.588;2022-12-18T11:23:27;99479.39;;;2.41;100.00
38289;BME280;24092;53.370;-6.588;2022-12-18T11:25:57;99481.12;;;2.33;100.00
38289;BME280;24092;53.370;-6.588;2022-12-18T11:28:29;99475.86;;;3.23;100.00
38289;BME280;24092;53.370;-6.588;2022-12-18T11:31:21;99461.27;;;3.58;100.00
38289;BME280;24092;53.370;-6.588;2022-12-18T11:33:58;99461.06;;;2.97;100.00
38289;BME280;24092;53.370;-6.588;2022-12-18T11:36:33;99459.45;;;2.61;100.00
38289;BME280;24092;53.370;-6.588;2022-12-18T11:39:05;99462.08;;;3.39;100.00
38289;BME280;24092;53.370;-6.588;2022-12-18T11:41:42;99451.80;;;4.27;100.00
38289;BME280;24092;53.370;-6.588;2022-12-18T11:44:15;99448.26;;;4.49;100.00
38289;BME280;24092;53.370;-6.588;2022-12-18T11:46:49;99437.30;;;4.33;100.00
38289;BME280;24092;53.370;-6.588;2022-12-18T11:49:22;99423.35;;;3.05;100.00
38289;BME280;24092;53.370;-6.588;2022-12-18T11:51:58;99428.59;;;3.24;100.00
38289;BME280;24092;53.370;-6.588;2022-12-18T11:54:27;99412.93;;;3.76;100.00
38289;BME280;24092;53.370;-6.588;2022-12-18T11:56:58;99406.80;;;2.91;100.00
38289;BME280;24092;53.370;-6.588;2022-12-18T11:59:33;99406.74;;;3.05;100.00
38289;BME280;24092;53.370;-6.588;2022-12-18T12:02:29;99394.37;;;3.67;100.00
38289;BME280;24092;53.370;-6.588;2022-12-18T12:05:13;99387.48;;;4.21;100.00
38289;BME280;24092;53.370;-6.588;2022-12-18T12:07:52;99379.11;;;3.32;100.00
38289;BME280;24092;53.370;-6.588;2022-12-18T12:10:33;99376.44;;;4.08;100.00
38289;BME280;24092;53.370;-6.588;2022-12-18T12:13:20;99372.80;;;3.75;100.00
38289;BME280;24092;53.370;-6.588;2022-12-18T12:16:01;99366.79;;;4.80;100.00
38289;BME280;24092;53.370;-6.588;2022-12-18T12:18:40;99361.27;;;4.54;100.00
38289;BME280;24092;53.370;-6.588;2022-12-18T12:21:17;99358.06;;;4.08;100.00
38289;BME280;24092;53.370;-6.588;2022-12-18T12:23:53;99351.55;;;4.38;100.00
38289;BME280;24092;53.370;-6.588;2022-12-18T12:26:26;99349.54;;;4.14;100.00
38289;BME280;24092;53.370;-6.588;2022-12-18T12:29:04;99337.71;;;4.97;100.00
38289;BME280;24092;53.370;-6.588;2022-12-18T12:31:46;99326.24;;;3.81;100.00
38289;BME280;24092;53.370;-6.588;2022-12-18T12:34:19;99320.21;;;3.95;100.00
38289;BME280;24092;53.370;-6.588;2022-12-18T12:36:59;99299.86;;;2.56;100.00
38289;BME280;24092;53.370;-6.588;2022-12-18T12:39:32;99293.35;;;3.43;100.00
38289;BME280;24092;53.370;-6.588;2022-12-18T12:42:02;99276.18;;;4.16;100.00
38289;BME280;24092;53.370;-6.588;2022-12-18T12:44:34;99271.07;;;4.38;100.00
38289;BME280;24092;53.370;-6.588;2022-12-18T12:47:11;99263.04;;;5.20;100.00
38289;BME280;24092;53.370;-6.588;2022-12-18T12:49:40;99252.93;;;3.58;100.00
38289;BME280;24092;53.370;-6.588;2022-12-18T12:52:11;99246.49;;;5.05;100.00
38289;BME280;24092;53.370;-6.588;2022-12-18T12:54:42;99239.34;;;5.52;100.00
38289;BME280;24092;53.370;-6.588;2022-12-18T12:57:14;99229.88;;;5.00;100.00